Time;durP1;ratioP1;P1;durP2;ratioP2;P2;SDS_P1;SDS_P2;PMS_P1;PMS_P2;Temp;Humidity;BMP_temperature;BMP_pressure;BME280_temperature;BME280_humidity;BME280_pressure;Samples;Min_cycle;Max_cycle;Signal;HPM_P1;HPM_P2
2022/01/20 00:00:19;;;;;;;21.70;3.22;;;2.10;89.70;;;;;;5042128;28;20438;-87
2022/01/20 00:02:57;;;;;;;18.25;3.55;;;2.10;89.40;;;;;;5044148;28;20099;-87
2022/01/20 00:27:08;;;;;;;15.93;2.75;;;2.00;88.20;;;;;;5049630;28;20052;-87
2022/01/20 00:30:00;;;;;;;15.25;2.63;;;1.90;88.10;;;;;;5054435;28;20025;-87
2022/01/20 00:32:24;;;;;;;16.17;2.72;;;1.90;88.80;;;;;;5038468;28;20484;-87
2022/01/20 00:37:27;;;;;;;28.42;3.78;;;2.10;87.90;;;;;;5043110;28;20472;-88
2022/01/20 00:39:54;;;;;;;21.42;3.05;;;2.10;88.00;;;;;;5051186;28;20029;-88
2022/01/20 00:42:23;;;;;;;25.05;3.33;;;2.10;88.50;;;;;;5031397;28;20025;-88
2022/01/20 00:44:49;;;;;;;27.00;3.78;;;2.20;88.30;;;;;;5044405;28;20492;-88
2022/01/20 00:47:18;;;;;;;16.13;2.70;;;2.30;88.00;;;;;;5056532;28;20125;-88
2022/01/20 00:49:47;;;;;;;17.55;3.22;;;2.40;87.90;;;;;;5051243;28;20472;-88
2022/01/20 00:52:13;;;;;;;18.27;3.30;;;2.50;87.40;;;;;;5052612;28;20495;-88
2022/01/20 00:54:48;;;;;;;24.35;3.45;;;2.50;87.40;;;;;;5050681;28;20028;-88
2022/01/20 00:57:16;;;;;;;23.15;3.38;;;2.40;87.70;;;;;;5050006;28;20028;-87
2022/01/20 00:59:41;;;;;;;18.17;3.70;;;2.30;88.10;;;;;;5048472;28;20036;-87
2022/01/20 01:02:12;;;;;;;21.77;3.05;;;2.20;88.60;;;;;;5050864;28;20028;-88
2022/01/20 01:04:38;;;;;;;16.77;2.83;;;2.20;88.70;;;;;;5052090;28;20586;-88
2022/01/20 01:09:50;;;;;;;13.55;2.75;;;2.30;88.20;;;;;;5043449;28;20499;-87
2022/01/20 01:12:18;;;;;;;17.55;3.00;;;2.30;88.40;;;;;;5045881;28;20033;-88
2022/01/20 01:14:50;;;;;;;25.08;3.42;;;2.20;88.50;;;;;;5033959;28;20053;-87
2022/01/20 01:22:30;;;;;;;20.92;4.10;;;2.40;88.80;;;;;;5046236;28;20550;-88
2022/01/20 01:24:56;;;;;;;23.05;3.15;;;2.40;88.70;;;;;;5047259;28;20021;-88
2022/01/20 01:27:25;;;;;;;19.85;2.72;;;2.50;88.50;;;;;;5047930;28;20448;-88
2022/01/20 01:30:05;;;;;;;17.95;3.25;;;2.40;89.00;;;;;;5046018;28;20485;-88
2022/01/20 01:32:47;;;;;;;15.05;2.90;;;2.40;89.10;;;;;;5042133;28;20393;-88
2022/01/20 01:35:13;;;;;;;19.52;2.70;;;2.40;89.00;;;;;;5049073;28;20116;-88
2022/01/20 01:40:08;;;;;;;18.33;3.58;;;2.40;89.20;;;;;;5046843;28;20052;-88
2022/01/20 01:42:46;;;;;;;11.10;2.35;;;2.60;89.00;;;;;;5049302;28;20091;-88
2022/01/20 01:45:20;;;;;;;16.80;2.45;;;2.70;88.70;;;;;;5044486;28;20031;-87
2022/01/20 01:47:54;;;;;;;17.50;3.25;;;2.80;88.60;;;;;;5047084;28;20032;-88
2022/01/20 01:50:20;;;;;;;13.73;2.70;;;2.80;89.00;;;;;;5038409;28;20025;-88
2022/01/20 01:52:52;;;;;;;14.18;2.22;;;2.80;90.30;;;;;;5047978;28;20021;-88
2022/01/20 01:55:20;;;;;;;18.05;2.58;;;2.80;91.40;;;;;;5031469;28;20021;-88
2022/01/20 01:57:46;;;;;;;15.40;2.15;;;2.70;91.80;;;;;;5043062;28;20076;-88
2022/01/20 02:00:12;;;;;;;14.77;2.42;;;2.70;91.80;;;;;;5030254;28;20029;-88
2022/01/20 02:02:39;;;;;;;13.65;2.45;;;2.70;91.70;;;;;;5048661;28;20477;-87
2022/01/20 02:05:07;;;;;;;13.07;2.97;;;2.70;91.80;;;;;;5046515;28;20053;-88
2022/01/20 02:21:02;;;;;;;7.10;0.90;;;2.60;92.40;;;;;;5038392;28;20021;-88
2022/01/20 02:23:30;;;;;;;6.05;1.02;;;2.60;92.20;;;;;;5049161;28;20457;-88
2022/01/20 02:26:00;;;;;;;4.28;1.20;;;2.60;92.30;;;;;;5046799;28;20115;-88
2022/01/20 02:28:37;;;;;;;1.65;0.85;;;2.60;92.00;;;;;;5045498;28;20021;-88
2022/01/20 02:31:02;;;;;;;2.35;0.65;;;2.60;92.10;;;;;;5047993;28;20060;-88
2022/01/20 02:33:30;;;;;;;3.78;0.90;;;2.50;92.20;;;;;;5049941;28;20519;-88
2022/01/20 02:36:03;;;;;;;3.90;0.82;;;2.50;92.40;;;;;;5047049;28;20021;-88
2022/01/20 02:46:46;;;;;;;8.30;0.95;;;2.50;92.40;;;;;;5043620;28;20039;-88
2022/01/20 02:49:16;;;;;;;5.80;0.63;;;2.40;92.70;;;;;;5048285;28;20036;-87
2022/01/20 02:52:02;;;;;;;5.53;0.85;;;2.40;93.20;;;;;;5047373;28;20060;-87
2022/01/20 02:54:38;;;;;;;9.23;1.13;;;2.30;93.50;;;;;;5047801;28;20036;-88
2022/01/20 02:57:08;;;;;;;5.45;1.00;;;2.30;93.20;;;;;;5047562;28;20036;-88
2022/01/20 02:59:34;;;;;;;10.55;1.40;;;2.20;93.00;;;;;;5036270;28;20115;-87
2022/01/20 03:02:01;;;;;;;5.80;1.02;;;2.10;92.80;;;;;;5048742;28;20127;-87
2022/01/20 03:04:29;;;;;;;6.25;1.45;;;2.10;92.60;;;;;;5047920;28;20515;-88
2022/01/20 03:07:11;;;;;;;8.13;1.50;;;2.10;92.20;;;;;;5051254;28;20036;-88
2022/01/20 03:09:41;;;;;;;12.38;1.88;;;2.10;91.80;;;;;;5053436;28;20029;-88
2022/01/20 03:12:09;;;;;;;8.93;2.03;;;2.10;91.80;;;;;;5034008;28;20034;-88
2022/01/20 03:14:42;;;;;;;8.65;1.52;;;2.10;91.60;;;;;;5031999;28;20045;-88
2022/01/20 03:17:07;;;;;;;15.32;1.73;;;2.10;91.60;;;;;;5048639;28;20021;-88
2022/01/20 03:19:35;;;;;;;10.50;1.80;;;2.00;91.50;;;;;;5048021;28;20033;-88
2022/01/20 03:22:03;;;;;;;11.25;2.13;;;2.10;91.70;;;;;;5049197;28;20029;-87
2022/01/20 03:24:29;;;;;;;10.68;1.83;;;2.00;91.90;;;;;;5047909;28;20675;-88
2022/01/20 03:26:54;;;;;;;6.57;1.50;;;2.00;92.20;;;;;;5046299;28;20138;-88
2022/01/20 03:29:20;;;;;;;10.48;2.08;;;1.90;92.30;;;;;;5035951;28;20025;-87
2022/01/20 03:31:46;;;;;;;11.10;1.83;;;1.90;92.40;;;;;;5044108;28;20037;-88
2022/01/20 03:34:11;;;;;;;8.25;1.98;;;1.90;92.50;;;;;;5036691;28;20028;-88
2022/01/20 03:36:41;;;;;;;13.10;2.47;;;1.80;92.50;;;;;;5052053;28;20484;-88
2022/01/20 03:39:15;;;;;;;11.00;2.08;;;1.80;92.50;;;;;;5048539;28;20111;-88
2022/01/20 03:41:43;;;;;;;15.80;2.50;;;1.80;92.50;;;;;;5047577;28;20052;-88
2022/01/20 03:44:09;;;;;;;13.52;2.30;;;1.80;92.20;;;;;;5048033;28;20064;-88
2022/01/20 03:46:34;;;;;;;13.77;2.00;;;1.80;92.40;;;;;;5044897;28;20103;-89
2022/01/20 03:49:09;;;;;;;22.67;2.67;;;1.80;92.40;;;;;;5048240;28;20042;-88
2022/01/20 03:51:35;;;;;;;12.23;2.42;;;1.80;92.30;;;;;;5047394;28;20040;-87
2022/01/20 03:54:03;;;;;;;17.00;2.50;;;1.80;92.40;;;;;;5054372;28;20481;-88
2022/01/20 03:56:32;;;;;;;15.80;2.17;;;1.80;92.20;;;;;;5047109;28;20078;-87
2022/01/20 03:59:00;;;;;;;14.77;2.65;;;1.80;90.80;;;;;;5045957;28;20021;-88
2022/01/20 04:01:26;;;;;;;16.02;2.78;;;1.90;90.60;;;;;;5043211;28;20040;-88
2022/01/20 04:03:51;;;;;;;13.93;2.40;;;1.80;90.30;;;;;;5051804;28;20033;-87
2022/01/20 04:06:19;;;;;;;13.43;2.25;;;1.70;90.10;;;;;;5049106;28;20041;-88
2022/01/20 04:08:47;;;;;;;15.80;2.53;;;1.60;89.90;;;;;;5052476;28;20024;-87
2022/01/20 04:11:31;;;;;;;10.57;2.22;;;1.60;89.60;;;;;;5050459;28;20061;-87
2022/01/20 04:14:02;;;;;;;9.90;2.90;;;1.60;88.00;;;;;;5051919;28;20064;-87
2022/01/20 04:17:03;;;;;;;13.25;2.03;;;1.70;87.00;;;;;;5046241;28;20083;-87
2022/01/20 04:19:32;;;;;;;10.73;2.10;;;1.50;87.40;;;;;;5048467;28;20033;-87
2022/01/20 04:21:59;;;;;;;14.60;2.50;;;1.40;87.40;;;;;;5052239;28;20056;-87
2022/01/20 04:24:26;;;;;;;10.25;1.58;;;1.20;87.80;;;;;;5049646;28;20029;-87
2022/01/20 04:27:00;;;;;;;15.48;2.08;;;1.20;87.20;;;;;;5050980;28;20392;-87
2022/01/20 04:29:34;;;;;;;8.50;1.67;;;1.10;87.20;;;;;;5066527;28;20032;-87
2022/01/20 04:32:04;;;;;;;23.27;3.33;;;1.20;85.90;;;;;;5058051;28;20020;-87
2022/01/20 04:34:39;;;;;;;;;;;;;;;;;;;;;
2022/01/20 04:37:10;;;;;;;10.57;1.85;;;1.30;85.50;;;;;;5040977;28;20522;-87
2022/01/20 04:39:44;;;;;;;6.50;1.33;;;1.30;86.10;;;;;;5050323;28;20109;-88
2022/01/20 04:42:10;;;;;;;16.58;2.08;;;1.30;86.20;;;;;;5048700;28;20061;-87
2022/01/20 04:44:47;;;;;;;10.60;1.98;;;1.40;84.40;;;;;;5058792;28;20535;-87
2022/01/20 04:48:16;;;;;;;6.88;1.27;;;1.30;85.10;;;;;;5051109;28;20114;-87
2022/01/20 04:58:51;;;;;;;8.65;1.90;;;1.00;87.20;;;;;;5042703;28;20119;-87
2022/01/20 05:01:24;;;;;;;13.93;2.45;;;1.00;87.60;;;;;;5045326;28;20025;-87
2022/01/20 05:03:50;;;;;;;8.27;1.65;;;1.10;87.20;;;;;;5047014;28;20115;-85
2022/01/20 05:06:32;;;;;;;9.45;1.58;;;1.00;87.60;;;;;;5045815;28;20536;-88
2022/01/20 05:09:00;;;;;;;12.52;1.80;;;1.10;86.90;;;;;;5050015;28;20039;-87
2022/01/20 05:11:28;;;;;;;7.45;1.33;;;1.10;87.00;;;;;;5045418;28;20033;-87
2022/01/20 05:13:53;;;;;;;9.50;1.85;;;1.10;86.80;;;;;;5049758;28;20056;-87
2022/01/20 05:16:19;;;;;;;12.18;1.63;;;1.10;86.70;;;;;;5048055;28;20029;-88
2022/01/20 05:18:44;;;;;;;19.45;2.50;;;1.00;87.50;;;;;;5044238;28;20032;-87
2022/01/20 05:21:10;;;;;;;6.55;1.65;;;0.90;87.80;;;;;;5048948;28;20063;-86
2022/01/20 05:23:35;;;;;;;19.70;2.97;;;0.90;87.70;;;;;;5048312;28;20017;-85
2022/01/20 05:26:01;;;;;;;12.85;2.17;;;0.90;87.50;;;;;;5036309;28;20469;-85
2022/01/20 05:28:28;;;;;;;19.55;2.78;;;0.80;88.20;;;;;;5046524;28;20033;-86
2022/01/20 05:30:59;;;;;;;15.38;2.53;;;0.80;88.30;;;;;;5035542;28;20108;-86
2022/01/20 05:33:30;;;;;;;14.40;2.10;;;0.80;88.30;;;;;;5047714;28;20507;-85
2022/01/20 05:35:55;;;;;;;7.95;1.60;;;0.80;88.60;;;;;;5050349;28;20033;-86
2022/01/20 05:38:21;;;;;;;10.43;2.53;;;0.80;88.40;;;;;;5049266;28;20021;-86
2022/01/20 05:40:46;;;;;;;11.65;2.03;;;0.80;88.30;;;;;;5049691;28;20036;-86
2022/01/20 05:43:15;;;;;;;17.83;2.50;;;0.90;87.60;;;;;;5049941;28;20404;-86
2022/01/20 05:45:40;;;;;;;18.08;2.63;;;0.90;88.00;;;;;;5040612;28;20702;-85
2022/01/20 05:48:15;;;;;;;13.52;2.30;;;0.90;87.80;;;;;;5050922;28;20044;-86
2022/01/20 05:50:48;;;;;;;7.90;1.80;;;0.90;87.50;;;;;;5042478;28;20029;-86
2022/01/20 05:53:16;;;;;;;13.73;2.67;;;0.90;87.40;;;;;;5044647;28;20648;-89
2022/01/20 05:56:02;;;;;;;;;;;;;;;;;;;;;
2022/01/20 05:58:29;;;;;;;24.83;2.70;;;0.90;87.90;;;;;;5006382;28;20414;-88
2022/01/20 06:00:54;;;;;;;19.02;2.53;;;0.80;88.10;;;;;;5041754;28;20032;-88
2022/01/20 06:03:38;;;;;;;18.20;2.95;;;0.80;87.80;;;;;;5047529;28;20028;-88
2022/01/20 06:06:11;;;;;;;27.60;3.42;;;0.90;87.10;;;;;;5045928;28;20492;-88
2022/01/20 06:08:42;;;;;;;11.75;2.05;;;1.00;86.80;;;;;;5048661;28;20086;-88
2022/01/20 06:11:09;;;;;;;19.75;3.53;;;1.10;86.00;;;;;;5048275;28;20051;-88
2022/01/20 06:13:42;;;;;;;18.90;3.50;;;1.10;86.20;;;;;;5047982;28;20041;-87
2022/01/20 06:16:10;;;;;;;12.30;2.85;;;1.00;85.70;;;;;;5046993;28;20027;-87
2022/01/20 06:18:39;;;;;;;13.93;3.53;;;1.10;85.00;;;;;;5046004;28;20419;-87
2022/01/20 06:21:12;;;;;;;16.40;3.65;;;1.00;85.00;;;;;;5048367;28;20077;-87
2022/01/20 06:23:45;;;;;;;20.35;3.95;;;0.90;85.60;;;;;;5043850;28;20036;-87
2022/01/20 06:26:20;;;;;;;13.10;2.50;;;0.90;85.60;;;;;;5049000;28;20083;-87
2022/01/20 06:28:54;;;;;;;15.63;2.28;;;0.90;84.80;;;;;;5049417;28;20032;-87
2022/01/20 06:31:22;;;;;;;11.73;2.65;;;1.00;84.40;;;;;;5047509;28;20021;-87
2022/01/20 06:33:47;;;;;;;14.02;2.63;;;1.00;84.30;;;;;;5036145;28;20500;-87
2022/01/20 06:36:23;;;;;;;13.10;2.53;;;1.10;83.50;;;;;;5047629;28;20059;-88
2022/01/20 06:38:54;;;;;;;14.07;2.65;;;1.10;83.80;;;;;;5040160;28;20028;-88
2022/01/20 06:41:39;;;;;;;;;;;;;;;;;;;;;
2022/01/20 06:44:06;;;;;;;14.77;2.40;;;1.20;82.90;;;;;;5041070;28;20029;-87
2022/01/20 06:46:31;;;;;;;19.35;3.20;;;1.20;82.90;;;;;;5032901;28;20057;-87
2022/01/20 06:49:05;;;;;;;10.90;2.15;;;1.10;83.40;;;;;;5030561;28;20056;-87
2022/01/20 06:51:31;;;;;;;21.23;2.97;;;1.10;83.20;;;;;;5047849;28;20617;-87
2022/01/20 06:53:59;;;;;;;21.17;3.45;;;1.00;83.00;;;;;;5043350;28;20021;-87
2022/01/20 06:56:25;;;;;;;15.25;2.95;;;0.90;83.40;;;;;;5044069;28;20044;-87
2022/01/20 06:58:53;;;;;;;13.43;2.50;;;0.90;83.40;;;;;;5046372;28;20017;-87
2022/01/20 07:01:23;;;;;;;18.15;2.53;;;0.80;84.10;;;;;;5032529;28;20047;-87
2022/01/20 07:03:49;;;;;;;10.93;1.95;;;0.80;83.80;;;;;;5047905;28;20025;-87
2022/01/20 07:06:35;;;;;;;;;;;;;;;;;;;;;
2022/01/20 07:09:11;;;;;;;12.50;2.80;;;0.90;83.70;;;;;;5048963;28;20044;-87
2022/01/20 07:11:42;;;;;;;22.20;3.35;;;0.90;83.60;;;;;;5048137;28;20028;-87
2022/01/20 07:14:08;;;;;;;9.20;2.33;;;0.90;83.70;;;;;;5034595;28;20063;-87
2022/01/20 07:16:34;;;;;;;10.75;2.17;;;0.90;83.50;;;;;;5053761;28;20025;-87
2022/01/20 07:19:00;;;;;;;15.15;3.25;;;0.90;83.40;;;;;;5050963;28;20017;-87
2022/01/20 07:21:25;;;;;;;17.02;2.60;;;0.90;83.40;;;;;;5047293;28;20443;-87
2022/01/20 07:23:51;;;;;;;12.85;2.70;;;0.80;84.10;;;;;;5036203;28;20477;-87
2022/01/20 07:26:19;;;;;;;20.63;2.50;;;0.60;84.50;;;;;;5044978;28;20095;-87
2022/01/20 07:28:44;;;;;;;13.27;2.58;;;0.60;84.20;;;;;;5046885;28;20029;-87
2022/01/20 07:31:10;;;;;;;21.92;3.10;;;0.60;84.20;;;;;;5042756;28;20083;-87
2022/01/20 07:33:37;;;;;;;20.60;3.58;;;0.50;84.90;;;;;;5048784;28;20240;-87
2022/01/20 07:36:04;;;;;;;15.93;3.03;;;0.60;84.30;;;;;;5051052;28;20026;-86
2022/01/20 07:38:32;;;;;;;23.75;3.45;;;0.50;84.70;;;;;;5039377;28;20036;-87
2022/01/20 07:40:57;;;;;;;9.65;2.20;;;0.50;84.50;;;;;;5034969;28;20404;-87
2022/01/20 07:43:23;;;;;;;16.80;2.85;;;0.50;84.60;;;;;;5043427;28;20025;-87
2022/01/20 07:45:49;;;;;;;13.68;3.30;;;0.60;84.20;;;;;;5048187;28;20041;-87
2022/01/20 07:48:14;;;;;;;17.25;2.92;;;0.60;83.90;;;;;;5042756;28;20028;-86
2022/01/20 07:50:40;;;;;;;16.55;2.58;;;0.60;84.10;;;;;;5050403;28;20033;-86
2022/01/20 07:53:06;;;;;;;15.73;2.05;;;0.70;83.70;;;;;;5040457;28;20029;-86
2022/01/20 07:55:34;;;;;;;13.43;2.63;;;0.70;83.70;;;;;;5043133;28;20494;-86
2022/01/20 07:57:59;;;;;;;17.65;2.45;;;0.70;83.70;;;;;;5053011;28;20024;-86
2022/01/20 08:00:25;;;;;;;18.65;3.10;;;0.70;83.80;;;;;;5050884;28;20025;-86
2022/01/20 08:02:51;;;;;;;21.50;2.90;;;0.70;83.90;;;;;;5050766;28;20079;-86
2022/01/20 08:05:16;;;;;;;20.80;3.28;;;0.70;84.00;;;;;;5050862;28;20033;-86
2022/01/20 08:07:42;;;;;;;15.48;2.80;;;0.70;83.50;;;;;;5044866;28;20025;-86
2022/01/20 08:10:11;;;;;;;19.10;3.53;;;0.70;83.40;;;;;;5038932;28;20025;-86
2022/01/20 08:12:37;;;;;;;15.80;3.05;;;0.60;83.60;;;;;;5039460;28;20084;-86
2022/01/20 08:15:03;;;;;;;22.20;3.20;;;0.70;83.30;;;;;;5041142;28;20106;-86
2022/01/20 08:17:29;;;;;;;25.55;3.30;;;0.80;82.60;;;;;;5051694;28;20365;-86
2022/01/20 08:19:54;;;;;;;17.80;3.67;;;0.80;82.50;;;;;;5052953;28;20025;-86
2022/01/20 08:22:20;;;;;;;13.52;2.47;;;0.80;82.50;;;;;;5051929;28;20025;-87
2022/01/20 08:24:51;;;;;;;16.92;2.83;;;0.90;82.30;;;;;;5061637;28;20396;-86
2022/01/20 08:27:20;;;;;;;14.00;2.70;;;0.90;82.50;;;;;;5044377;28;20127;-86
2022/01/20 08:29:46;;;;;;;19.02;2.70;;;0.80;83.10;;;;;;5050842;28;20043;-87
2022/01/20 08:32:14;;;;;;;20.10;3.05;;;1.00;81.30;;;;;;5038288;28;20021;-86
2022/01/20 08:34:40;;;;;;;18.55;3.35;;;1.00;81.90;;;;;;5050883;28;20148;-86
2022/01/20 08:37:05;;;;;;;17.38;3.40;;;1.20;81.00;;;;;;5042386;28;20089;-87
2022/01/20 08:42:01;;;;;;;15.48;2.95;;;1.30;81.00;;;;;;5053902;28;20041;-87
2022/01/20 08:44:27;;;;;;;19.10;2.63;;;1.30;80.90;;;;;;5044200;28;20037;-87
2022/01/20 08:46:53;;;;;;;8.38;2.08;;;1.50;80.10;;;;;;5050285;28;20025;-87
2022/01/20 08:49:22;;;;;;;10.30;2.10;;;1.60;80.90;;;;;;5038527;28;20052;-87
2022/01/20 08:51:48;;;;;;;25.17;3.25;;;1.70;80.20;;;;;;5055110;28;20055;-87
2022/01/20 08:54:14;;;;;;;16.92;2.75;;;1.70;80.00;;;;;;5044704;28;20033;-87
2022/01/20 08:56:41;;;;;;;14.05;2.75;;;1.60;80.90;;;;;;5042298;28;20087;-87
2022/01/20 08:59:07;;;;;;;17.20;3.25;;;1.60;81.60;;;;;;5051319;28;20447;-87
2022/01/20 09:01:34;;;;;;;15.07;3.13;;;1.60;81.60;;;;;;5035838;28;20485;-87
2022/01/20 09:03:59;;;;;;;17.85;2.50;;;1.60;81.50;;;;;;5046530;28;20032;-87
2022/01/20 09:06:25;;;;;;;13.93;2.33;;;1.80;81.70;;;;;;5045713;28;20037;-86
2022/01/20 09:08:51;;;;;;;14.63;2.72;;;2.00;80.10;;;;;;5031387;28;20389;-87
2022/01/20 09:11:22;;;;;;;10.25;2.42;;;2.00;80.40;;;;;;5030320;28;20102;-87
2022/01/20 09:16:34;;;;;;;16.42;2.72;;;1.90;79.80;;;;;;5049453;28;20055;-87
2022/01/20 09:19:01;;;;;;;17.95;2.45;;;1.80;79.10;;;;;;5050518;28;20025;-87
2022/01/20 09:21:28;;;;;;;9.98;2.30;;;1.90;77.70;;;;;;5047335;28;20032;-86
2022/01/20 09:23:55;;;;;;;16.73;2.83;;;1.80;79.00;;;;;;5040935;28;20489;-87
2022/01/20 09:26:20;;;;;;;16.98;2.28;;;1.80;79.80;;;;;;5049951;28;20032;-87
2022/01/20 09:28:46;;;;;;;15.32;3.13;;;1.80;80.60;;;;;;5050841;28;20036;-86
2022/01/20 09:31:12;;;;;;;20.17;2.90;;;1.70;82.70;;;;;;5050068;28;20087;-86
2022/01/20 09:33:39;;;;;;;16.70;2.25;;;1.80;83.70;;;;;;5046473;28;20025;-86
2022/01/20 09:36:10;;;;;;;20.52;2.42;;;1.80;83.90;;;;;;5044108;28;20033;-86
2022/01/20 09:38:36;;;;;;;12.73;2.78;;;1.90;84.30;;;;;;5041895;28;20134;-86
2022/01/20 09:41:04;;;;;;;8.93;2.03;;;2.00;84.40;;;;;;5033404;28;20481;-87
2022/01/20 09:43:30;;;;;;;18.35;2.50;;;1.90;84.00;;;;;;5030665;28;20037;-86
2022/01/20 09:45:59;;;;;;;14.10;2.08;;;1.90;83.70;;;;;;5031863;28;20488;-86
2022/01/20 09:48:27;;;;;;;15.70;4.70;;;1.80;84.10;;;;;;5045910;28;20891;-87
2022/01/20 09:50:53;;;;;;;16.02;2.92;;;1.80;84.10;;;;;;5051303;28;20116;-87
2022/01/20 09:53:19;;;;;;;16.95;3.30;;;1.70;84.80;;;;;;5050064;28;20215;-87
2022/01/20 09:55:45;;;;;;;14.88;3.65;;;1.70;84.90;;;;;;5043453;28;20108;-87
2022/01/20 09:58:12;;;;;;;13.07;3.13;;;1.60;84.50;;;;;;5046087;28;20048;-87
2022/01/20 10:00:40;;;;;;;12.25;2.53;;;1.40;85.10;;;;;;5047725;28;20044;-87
2022/01/20 10:03:12;;;;;;;11.32;3.40;;;1.30;85.90;;;;;;5045550;28;20033;-87
2022/01/20 10:05:47;;;;;;;16.90;2.97;;;1.20;85.80;;;;;;5049722;28;20116;-87
2022/01/20 10:08:22;;;;;;;15.48;3.00;;;1.40;85.90;;;;;;5039498;28;20037;-87
2022/01/20 10:10:58;;;;;;;21.23;3.25;;;1.70;84.80;;;;;;5048661;28;20427;-87
2022/01/20 10:13:29;;;;;;;12.23;2.13;;;2.00;84.10;;;;;;5029281;28;20370;-87
2022/01/20 10:16:08;;;;;;;12.02;2.83;;;2.10;82.80;;;;;;5042804;28;20041;-87
2022/01/20 10:18:48;;;;;;;16.17;3.15;;;2.10;83.00;;;;;;5038151;28;20104;-87
2022/01/20 10:21:15;;;;;;;10.10;2.40;;;2.20;82.80;;;;;;5043269;28;20029;-87
2022/01/20 10:23:47;;;;;;;17.77;3.05;;;2.40;82.70;;;;;;5065052;28;20086;-87
2022/01/20 10:26:18;;;;;;;23.80;2.97;;;2.10;82.30;;;;;;5031716;28;20044;-87
2022/01/20 10:28:55;;;;;;;11.50;2.72;;;2.00;83.70;;;;;;5037634;28;20030;-87
2022/01/20 10:31:49;;;;;;;7.65;1.58;;;1.90;83.40;;;;;;5043701;28;20256;-87
2022/01/20 10:34:31;;;;;;;7.18;1.35;;;2.00;82.60;;;;;;5046953;28;20025;-87
2022/01/20 10:37:23;;;;;;;9.20;1.50;;;2.20;82.30;;;;;;5038497;28;20036;-87
2022/01/20 10:39:49;;;;;;;6.43;1.58;;;2.20;81.60;;;;;;5049777;28;20025;-87
2022/01/20 10:42:22;;;;;;;13.45;2.08;;;2.30;81.60;;;;;;5052475;28;20547;-87
2022/01/20 10:44:55;;;;;;;5.47;1.38;;;2.10;82.70;;;;;;5028732;28;20448;-87
2022/01/20 10:47:27;;;;;;;7.35;2.15;;;1.90;83.50;;;;;;5041206;28;20456;-87
2022/01/20 10:49:53;;;;;;;8.73;2.13;;;1.80;84.00;;;;;;5036626;28;20579;-87
2022/01/20 10:52:22;;;;;;;16.45;2.00;;;2.10;83.50;;;;;;5044506;28;20588;-87
2022/01/20 10:54:53;;;;;;;7.15;1.73;;;2.20;83.20;;;;;;5043531;28;20025;-87
2022/01/20 10:57:27;;;;;;;6.55;1.90;;;2.30;82.70;;;;;;5053634;28;20086;-87
2022/01/20 10:59:59;;;;;;;6.38;1.88;;;2.50;82.00;;;;;;5043201;28;20464;-87
2022/01/20 11:02:29;;;;;;;10.10;2.05;;;2.70;81.60;;;;;;5044104;28;20033;-87
2022/01/20 11:04:58;;;;;;;14.07;2.08;;;2.90;80.80;;;;;;5039943;28;20037;-87
2022/01/20 11:07:24;;;;;;;13.32;2.60;;;3.10;80.80;;;;;;5042575;28;20040;-87
2022/01/20 11:10:01;;;;;;;11.70;2.10;;;3.00;81.00;;;;;;5030815;28;20061;-87
2022/01/20 11:12:27;;;;;;;9.60;1.98;;;2.80;81.20;;;;;;5048824;28;20455;-86
2022/01/20 11:14:57;;;;;;;7.53;2.28;;;2.90;80.50;;;;;;5013972;28;1028261;-86
2022/01/20 11:17:25;;;;;;;14.00;2.17;;;3.00;79.50;;;;;;5056609;28;20131;-86
2022/01/20 11:19:51;;;;;;;11.35;2.10;;;3.30;80.10;;;;;;5054917;28;20128;-86
2022/01/20 11:22:18;;;;;;;12.43;2.10;;;3.20;80.10;;;;;;5054804;28;20029;-86
2022/01/20 11:24:44;;;;;;;11.57;2.13;;;3.20;79.20;;;;;;5054042;28;20029;-86
2022/01/20 11:27:12;;;;;;;9.77;2.10;;;3.10;75.60;;;;;;5050776;28;20028;-86
2022/01/20 11:29:49;;;;;;;;;;;;;;;;;;;;;
2022/01/20 11:32:17;;;;;;;8.18;1.52;;;3.20;72.70;;;;;;5057753;28;20017;-86
2022/01/20 11:34:54;;;;;;;8.25;1.90;;;3.20;72.80;;;;;;5051906;28;20025;-86
2022/01/20 11:37:23;;;;;;;9.77;2.10;;;3.10;72.90;;;;;;5050659;28;20020;-85
2022/01/20 11:40:06;;;;;;;10.20;1.75;;;3.20;73.10;;;;;;5046536;28;20021;-86
2022/01/20 11:42:31;;;;;;;8.80;1.88;;;3.10;73.50;;;;;;5050472;28;20636;-86
2022/01/20 11:44:57;;;;;;;11.93;1.85;;;3.00;75.10;;;;;;5048872;28;20076;-86
2022/01/20 11:47:31;;;;;;;7.55;1.60;;;2.90;74.90;;;;;;5052832;28;20116;-86
2022/01/20 11:49:57;;;;;;;10.50;1.70;;;2.90;76.00;;;;;;5066142;28;20446;-86
2022/01/20 11:52:27;;;;;;;8.20;1.70;;;2.80;77.50;;;;;;5051201;28;20152;-86
2022/01/20 11:54:56;;;;;;;10.77;2.35;;;2.60;81.20;;;;;;5053251;28;20112;-86
2022/01/20 11:57:30;;;;;;;12.80;2.08;;;2.00;86.90;;;;;;5048477;28;20025;-86
2022/01/20 12:00:17;;;;;;;6.85;1.63;;;1.60;89.40;;;;;;5049406;28;20092;-86
2022/01/20 12:02:42;;;;;;;10.90;2.50;;;1.20;91.50;;;;;;5053453;28;20033;-86
2022/01/20 12:05:20;;;;;;;10.95;2.20;;;1.10;92.30;;;;;;5053525;28;20036;-86
2022/01/20 12:07:46;;;;;;;3.70;1.30;;;1.00;92.30;;;;;;5047520;28;20036;-87
2022/01/20 12:10:21;;;;;;;20.75;9.75;;;0.90;89.50;;;;;;5045951;28;20083;-86
2022/01/20 12:12:47;;;;;;;8.95;2.72;;;1.00;88.70;;;;;;5064988;28;20037;-86
2022/01/20 12:15:14;;;;;;;3.30;1.42;;;1.20;86.80;;;;;;5040979;28;20091;-87
2022/01/20 12:17:51;;;;;;;4.78;1.23;;;1.50;85.80;;;;;;5051968;28;20021;-87
2022/01/20 12:20:19;;;;;;;5.70;1.42;;;1.50;85.20;;;;;;5047556;28;20033;-87
2022/01/20 12:22:46;;;;;;;11.88;1.25;;;1.50;85.50;;;;;;5052569;28;20017;-87
2022/01/20 12:25:21;;;;;;;7.20;1.38;;;1.40;85.20;;;;;;5053040;28;20472;-86
2022/01/20 12:27:48;;;;;;;5.78;1.25;;;1.30;85.70;;;;;;5051330;28;20082;-86
2022/01/20 12:30:24;;;;;;;5.25;1.35;;;1.40;85.80;;;;;;5045813;28;20028;-85
2022/01/20 12:32:58;;;;;;;6.10;1.17;;;1.70;85.40;;;;;;5042823;28;20069;-86
2022/01/20 12:35:23;;;;;;;4.72;1.40;;;1.70;84.90;;;;;;5040883;28;20112;-86
2022/01/20 12:37:50;;;;;;;8.98;1.77;;;1.60;84.70;;;;;;5045740;28;20105;-86
2022/01/20 12:40:23;;;;;;;6.65;1.52;;;1.60;84.90;;;;;;5050738;28;20075;-86
2022/01/20 12:42:49;;;;;;;9.18;1.48;;;2.10;84.90;;;;;;5051109;28;20484;-86
2022/01/20 12:48:17;;;;;;;11.07;2.00;;;2.60;84.20;;;;;;5050470;28;20111;-87
2022/01/20 12:50:54;;;;;;;9.10;1.33;;;2.60;84.70;;;;;;5050705;28;20040;-87
2022/01/20 12:53:31;;;;;;;8.93;1.48;;;2.40;84.50;;;;;;5050276;28;20404;-87
2022/01/20 12:55:59;;;;;;;7.47;1.08;;;2.40;85.10;;;;;;5047305;28;20059;-88
2022/01/20 12:58:25;;;;;;;8.98;1.33;;;2.40;84.40;;;;;;5044330;28;20033;-88
2022/01/20 13:01:01;;;;;;;8.65;1.70;;;2.30;84.30;;;;;;5043712;28;20500;-87
2022/01/20 13:03:41;;;;;;;8.82;1.77;;;2.20;83.90;;;;;;5046951;28;20020;-87
2022/01/20 13:06:11;;;;;;;8.43;1.45;;;2.20;83.80;;;;;;5038951;28;20044;-87
2022/01/20 13:08:40;;;;;;;10.40;1.88;;;2.30;83.70;;;;;;5038275;28;20455;-87
2022/01/20 13:11:09;;;;;;;12.15;2.10;;;2.50;83.40;;;;;;5044248;28;20439;-87
2022/01/20 13:13:35;;;;;;;12.07;1.55;;;2.50;83.50;;;;;;5050434;28;20542;-87
2022/01/20 13:16:15;;;;;;;14.45;1.48;;;2.50;84.00;;;;;;5046047;28;20112;-87
2022/01/20 13:18:54;;;;;;;6.78;1.50;;;2.40;83.50;;;;;;5036969;28;20022;-87
2022/01/20 13:21:23;;;;;;;9.73;1.83;;;2.40;83.30;;;;;;5038922;28;20048;-87
2022/01/20 13:23:55;;;;;;;12.55;1.88;;;2.40;83.20;;;;;;5047305;28;20517;-87
2022/01/20 13:26:20;;;;;;;5.20;1.40;;;2.50;80.90;;;;;;5038067;28;20025;-87
2022/01/20 13:28:57;;;;;;;7.38;1.85;;;2.50;81.30;;;;;;5048572;28;20995;-87
2022/01/20 13:31:25;;;;;;;5.47;1.55;;;2.60;77.70;;;;;;5040248;28;20029;-87
2022/01/20 13:33:51;;;;;;;6.25;1.70;;;2.40;78.80;;;;;;5047177;28;20028;-88
2022/01/20 13:36:19;;;;;;;3.03;1.05;;;2.40;75.90;;;;;;5048634;28;20029;-88
2022/01/20 13:38:49;;;;;;;5.22;1.05;;;2.30;75.30;;;;;;5048310;28;20051;-88
2022/01/20 13:41:20;;;;;;;7.63;1.20;;;2.70;74.50;;;;;;5039049;28;20029;-87
2022/01/20 13:46:36;;;;;;;4.93;1.20;;;3.20;72.00;;;;;;5039980;28;20566;-87
2022/01/20 13:49:18;;;;;;;2.78;0.88;;;3.20;72.40;;;;;;5033434;28;20067;-88
2022/01/20 13:51:45;;;;;;;6.10;0.90;;;3.20;72.00;;;;;;5046350;28;20036;-87
2022/01/20 13:54:10;;;;;;;6.40;1.30;;;3.20;72.80;;;;;;5049812;28;20533;-87
2022/01/20 13:56:36;;;;;;;2.30;0.55;;;2.80;72.70;;;;;;5045151;28;20032;-87
2022/01/20 13:59:10;;;;;;;5.18;1.33;;;2.80;74.10;;;;;;5041302;28;20032;-87
2022/01/20 14:01:36;;;;;;;4.93;1.00;;;2.60;75.20;;;;;;5042906;28;20492;-87
2022/01/20 14:04:02;;;;;;;8.50;1.65;;;2.70;74.00;;;;;;5048323;28;20049;-87
2022/01/20 14:06:28;;;;;;;5.35;0.98;;;3.10;73.90;;;;;;5050993;28;20033;-87
2022/01/20 14:08:56;;;;;;;7.65;1.60;;;3.10;73.90;;;;;;5043434;28;20036;-88
2022/01/20 14:11:22;;;;;;;6.90;1.52;;;3.10;74.00;;;;;;5046819;28;20515;-88
2022/01/20 14:13:49;;;;;;;6.32;1.50;;;3.00;74.20;;;;;;5043840;28;20049;-87
2022/01/20 14:16:17;;;;;;;5.40;1.30;;;3.00;75.10;;;;;;5047651;28;20029;-87
2022/01/20 14:18:45;;;;;;;9.73;1.40;;;3.00;75.10;;;;;;5049018;28;20140;-86
2022/01/20 14:21:13;;;;;;;6.35;1.67;;;3.30;74.70;;;;;;5041426;28;20484;-86
2022/01/20 14:23:39;;;;;;;8.82;1.23;;;3.50;75.20;;;;;;5058789;28;20048;-86